sensor_id;sensor_type;location;lat;lon;timestamp;pressure;altitude;pressure_sealevel;temperature;humidity
19112;BME280;9688;51.906;8.376;2022-08-18T00:00:32;100324.22;;;21.84;87.07
19112;BME280;9688;51.906;8.376;2022-08-18T00:03:37;100330.56;;;21.83;87.12
19112;BME280;9688;51.906;8.376;2022-08-18T00:06:43;100327.19;;;21.81;87.16
19112;BME280;9688;51.906;8.376;2022-08-18T00:09:48;100325.63;;;21.78;87.25
19112;BME280;9688;51.906;8.376;2022-08-18T00:12:53;100331.25;;;21.75;87.29
19112;BME280;9688;51.906;8.376;2022-08-18T00:15:59;100340.59;;;21.71;87.69
19112;BME280;9688;51.906;8.376;2022-08-18T00:19:04;100333.94;;;21.66;87.78
19112;BME280;9688;51.906;8.376;2022-08-18T00:22:11;100338.75;;;21.62;88.01
19112;BME280;9688;51.906;8.376;2022-08-18T00:25:17;100343.81;;;21.55;88.36
19112;BME280;9688;51.906;8.376;2022-08-18T00:28:22;100348.16;;;21.47;88.63
19112;BME280;9688;51.906;8.376;2022-08-18T00:31:28;100352.13;;;21.43;88.76
19112;BME280;9688;51.906;8.376;2022-08-18T00:34:34;100360.47;;;21.40;88.90
19112;BME280;9688;51.906;8.376;2022-08-18T00:37:38;100362.44;;;21.37;89.08
19112;BME280;9688;51.906;8.376;2022-08-18T00:40:44;100361.69;;;21.35;89.30
19112;BME280;9688;51.906;8.376;2022-08-18T00:43:51;100351.91;;;21.34;89.07
19112;BME280;9688;51.906;8.376;2022-08-18T00:46:58;100345.09;;;21.30;89.21
19112;BME280;9688;51.906;8.376;2022-08-18T00:50:06;100341.69;;;21.28;89.50
19112;BME280;9688;51.906;8.376;2022-08-18T00:53:16;100331.91;;;21.27;89.55
19112;BME280;9688;51.906;8.376;2022-08-18T00:56:25;100332.06;;;21.26;89.93
19112;BME280;9688;51.906;8.376;2022-08-18T00:59:37;100330.34;;;21.25;89.52
19112;BME280;9688;51.906;8.376;2022-08-18T01:02:50;100334.31;;;21.21;90.01
19112;BME280;9688;51.906;8.376;2022-08-18T01:06:00;100336.53;;;21.15;90.30
19112;BME280;9688;51.906;8.376;2022-08-18T01:09:07;100344.16;;;21.10;90.81
19112;BME280;9688;51.906;8.376;2022-08-18T01:12:12;100341.00;;;21.05;90.84
19112;BME280;9688;51.906;8.376;2022-08-18T01:15:18;100338.59;;;21.02;91.21
19112;BME280;9688;51.906;8.376;2022-08-18T01:18:25;100336.06;;;21.01;91.22
19112;BME280;9688;51.906;8.376;2022-08-18T01:22:01;100327.25;;;20.99;91.17
19112;BME280;9688;51.906;8.376;2022-08-18T01:25:09;100331.91;;;20.97;91.12
19112;BME280;9688;51.906;8.376;2022-08-18T01:28:34;100331.47;;;20.91;91.56
19112;BME280;9688;51.906;8.376;2022-08-18T01:31:43;100328.91;;;20.90;91.54
19112;BME280;9688;51.906;8.376;2022-08-18T01:34:50;100328.19;;;20.88;91.70
19112;BME280;9688;51.906;8.376;2022-08-18T01:37:56;100328.56;;;20.83;91.82
19112;BME280;9688;51.906;8.376;2022-08-18T01:41:02;100337.91;;;20.79;91.91
19112;BME280;9688;51.906;8.376;2022-08-18T01:44:07;100344.66;;;20.74;92.30
19112;BME280;9688;51.906;8.376;2022-08-18T01:47:14;100343.34;;;20.68;92.25
19112;BME280;9688;51.906;8.376;2022-08-18T01:50:19;100344.44;;;20.65;92.71
19112;BME280;9688;51.906;8.376;2022-08-18T01:53:23;100332.97;;;20.63;92.40
19112;BME280;9688;51.906;8.376;2022-08-18T01:56:30;100344.09;;;20.59;92.75
19112;BME280;9688;51.906;8.376;2022-08-18T01:59:35;100339.84;;;20.56;92.70
19112;BME280;9688;51.906;8.376;2022-08-18T02:02:40;100345.59;;;20.52;92.83
19112;BME280;9688;51.906;8.376;2022-08-18T02:05:48;100349.50;;;20.47;93.08
19112;BME280;9688;51.906;8.376;2022-08-18T02:08:55;100358.22;;;20.40;93.38
19112;BME280;9688;51.906;8.376;2022-08-18T02:12:03;100356.19;;;20.32;93.53
19112;BME280;9688;51.906;8.376;2022-08-18T02:15:08;100351.78;;;20.31;94.01
19112;BME280;9688;51.906;8.376;2022-08-18T02:18:14;100355.59;;;20.28;93.88
19112;BME280;9688;51.906;8.376;2022-08-18T02:21:19;100363.16;;;20.23;94.36
19112;BME280;9688;51.906;8.376;2022-08-18T02:24:25;100364.28;;;20.21;94.35
19112;BME280;9688;51.906;8.376;2022-08-18T02:27:31;100352.06;;;20.17;94.30
19112;BME280;9688;51.906;8.376;2022-08-18T02:30:35;100346.97;;;20.14;94.51
19112;BME280;9688;51.906;8.376;2022-08-18T02:33:41;100340.00;;;20.11;94.97
19112;BME280;9688;51.906;8.376;2022-08-18T02:36:46;100343.09;;;20.07;95.08
19112;BME280;9688;51.906;8.376;2022-08-18T02:39:50;100329.06;;;20.03;95.29
19112;BME280;9688;51.906;8.376;2022-08-18T02:42:57;100336.16;;;20.04;95.48
19112;BME280;9688;51.906;8.376;2022-08-18T02:46:01;100339.78;;;20.03;95.31
19112;BME280;9688;51.906;8.376;2022-08-18T02:49:06;100336.16;;;20.04;95.36
19112;BME280;9688;51.906;8.376;2022-08-18T02:52:11;100332.72;;;20.02;95.46
19112;BME280;9688;51.906;8.376;2022-08-18T02:55:15;100332.16;;;19.98;95.43
19112;BME280;9688;51.906;8.376;2022-08-18T02:58:22;100334.22;;;19.95;95.68
19112;BME280;9688;51.906;8.376;2022-08-18T03:01:30;100346.03;;;19.92;95.96
19112;BME280;9688;51.906;8.376;2022-08-18T03:04:35;100339.97;;;19.90;95.83
19112;BME280;9688;51.906;8.376;2022-08-18T03:07:40;100342.75;;;19.89;95.97
19112;BME280;9688;51.906;8.376;2022-08-18T03:10:45;100349.13;;;19.88;95.91
19112;BME280;9688;51.906;8.376;2022-08-18T03:13:51;100348.28;;;19.87;95.75
19112;BME280;9688;51.906;8.376;2022-08-18T03:16:56;100342.16;;;19.85;96.05
19112;BME280;9688;51.906;8.376;2022-08-18T03:20:00;100342.28;;;19.83;96.10
19112;BME280;9688;51.906;8.376;2022-08-18T03:23:13;100343.28;;;19.82;96.14
19112;BME280;9688;51.906;8.376;2022-08-18T03:26:19;100330.72;;;19.83;95.98
19112;BME280;9688;51.906;8.376;2022-08-18T03:29:26;100331.69;;;19.82;96.04
19112;BME280;9688;51.906;8.376;2022-08-18T03:32:31;100331.81;;;19.80;96.10
19112;BME280;9688;51.906;8.376;2022-08-18T03:35:36;100339.13;;;19.78;96.17
19112;BME280;9688;51.906;8.376;2022-08-18T03:38:42;100342.06;;;19.75;96.40
19112;BME280;9688;51.906;8.376;2022-08-18T03:41:47;100342.19;;;19.74;96.47
19112;BME280;9688;51.906;8.376;2022-08-18T03:44:56;100343.16;;;19.73;96.47
19112;BME280;9688;51.906;8.376;2022-08-18T03:48:01;100352.19;;;19.72;96.51
19112;BME280;9688;51.906;8.376;2022-08-18T03:51:07;100343.28;;;19.71;96.62
19112;BME280;9688;51.906;8.376;2022-08-18T03:54:13;100351.44;;;19.70;96.67
19112;BME280;9688;51.906;8.376;2022-08-18T03:57:18;100359.50;;;19.70;96.71
19112;BME280;9688;51.906;8.376;2022-08-18T04:00:25;100359.50;;;19.70;96.96
19112;BME280;9688;51.906;8.376;2022-08-18T04:03:30;100354.03;;;19.71;97.16
19112;BME280;9688;51.906;8.376;2022-08-18T04:06:39;100365.59;;;19.72;96.71
19112;BME280;9688;51.906;8.376;2022-08-18T04:09:44;100369.03;;;19.74;97.35
19112;BME280;9688;51.906;8.376;2022-08-18T04:12:49;100369.03;;;19.74;97.42
19112;BME280;9688;51.906;8.376;2022-08-18T04:15:58;100366.94;;;19.77;97.42
19112;BME280;9688;51.906;8.376;2022-08-18T04:19:03;100372.78;;;19.82;97.50
19112;BME280;9688;51.906;8.376;2022-08-18T04:22:08;100386.94;;;19.85;97.18
19112;BME280;9688;51.906;8.376;2022-08-18T04:25:13;100377.31;;;19.82;97.23
19112;BME280;9688;51.906;8.376;2022-08-18T04:28:17;100381.94;;;19.80;97.23
19112;BME280;9688;51.906;8.376;2022-08-18T04:31:23;100377.56;;;19.79;97.48
19112;BME280;9688;51.906;8.376;2022-08-18T04:34:28;100381.81;;;19.81;97.40
19112;BME280;9688;51.906;8.376;2022-08-18T04:37:35;100381.56;;;19.85;97.21
19112;BME280;9688;51.906;8.376;2022-08-18T04:40:40;100384.50;;;19.81;97.38
19112;BME280;9688;51.906;8.376;2022-08-18T04:43:45;100386.44;;;19.79;97.45
19112;BME280;9688;51.906;8.376;2022-08-18T04:46:55;100378.41;;;19.79;97.68
19112;BME280;9688;51.906;8.376;2022-08-18T04:50:00;100393.50;;;19.80;97.45
19112;BME280;9688;51.906;8.376;2022-08-18T04:53:11;100387.63;;;19.87;97.22
19112;BME280;9688;51.906;8.376;2022-08-18T04:56:36;100387.63;;;19.87;97.25
19112;BME280;9688;51.906;8.376;2022-08-18T04:59:42;100376.47;;;19.81;97.63
19112;BME280;9688;51.906;8.376;2022-08-18T05:02:48;100376.91;;;19.87;97.85
19112;BME280;9688;51.906;8.376;2022-08-18T05:05:57;100395.31;;;19.91;97.30
19112;BME280;9688;51.906;8.376;2022-08-18T05:09:05;100381.66;;;19.94;96.86
19112;BME280;9688;51.906;8.376;2022-08-18T05:12:11;100385.06;;;19.96;96.90
19112;BME280;9688;51.906;8.376;2022-08-18T05:15:16;100397.50;;;19.97;96.70
19112;BME280;9688;51.906;8.376;2022-08-18T05:18:24;100399.34;;;19.97;96.69
19112;BME280;9688;51.906;8.376;2022-08-18T05:21:28;100404.72;;;19.97;96.51
19112;BME280;9688;51.906;8.376;2022-08-18T05:24:35;100401.28;;;19.95;96.47
19112;BME280;9688;51.906;8.376;2022-08-18T05:27:41;100390.31;;;19.98;96.03
19112;BME280;9688;51.906;8.376;2022-08-18T05:30:47;100407.13;;;20.00;95.79
19112;BME280;9688;51.906;8.376;2022-08-18T05:33:54;100394.44;;;20.02;95.69
19112;BME280;9688;51.906;8.376;2022-08-18T05:37:13;100397.38;;;20.10;95.05
19112;BME280;9688;51.906;8.376;2022-08-18T05:40:24;100400.28;;;20.18;94.87
19112;BME280;9688;51.906;8.376;2022-08-18T05:43:32;100407.94;;;20.23;94.38
19112;BME280;9688;51.906;8.376;2022-08-18T05:46:42;100402.44;;;20.24;94.33
19112;BME280;9688;51.906;8.376;2022-08-18T05:49:50;100405.59;;;20.30;94.00
19112;BME280;9688;51.906;8.376;2022-08-18T05:52:58;100408.78;;;20.35;93.98
19112;BME280;9688;51.906;8.376;2022-08-18T05:56:05;100402.28;;;20.37;93.63
19112;BME280;9688;51.906;8.376;2022-08-18T05:59:31;100403.22;;;20.47;93.50
19112;BME280;9688;51.906;8.376;2022-08-18T06:02:42;100403.59;;;20.54;92.95
19112;BME280;9688;51.906;8.376;2022-08-18T06:05:54;100401.38;;;20.59;92.36
19112;BME280;9688;51.906;8.376;2022-08-18T06:09:06;100402.03;;;20.72;92.42
19112;BME280;9688;51.906;8.376;2022-08-18T06:12:23;100398.44;;;20.83;91.89
19112;BME280;9688;51.906;8.376;2022-08-18T06:15:37;100405.84;;;20.91;91.65
19112;BME280;9688;51.906;8.376;2022-08-18T06:18:48;100410.91;;;21.05;91.33
19112;BME280;9688;51.906;8.376;2022-08-18T06:22:09;100414.34;;;21.17;90.63
19112;BME280;9688;51.906;8.376;2022-08-18T06:25:24;100422.19;;;21.20;90.23
19112;BME280;9688;51.906;8.376;2022-08-18T06:28:45;100426.88;;;21.28;89.95
19112;BME280;9688;51.906;8.376;2022-08-18T06:31:59;100426.13;;;21.37;89.70
19112;BME280;9688;51.906;8.376;2022-08-18T06:35:15;100422.81;;;21.33;89.64
19112;BME280;9688;51.906;8.376;2022-08-18T06:38:34;100431.56;;;21.26;89.57
19112;BME280;9688;51.906;8.376;2022-08-18T06:41:45;100440.13;;;21.20;89.85
19112;BME280;9688;51.906;8.376;2022-08-18T06:44:54;100432.41;;;21.26;89.45
19112;BME280;9688;51.906;8.376;2022-08-18T06:48:06;100437.13;;;21.34;88.92
19112;BME280;9688;51.906;8.376;2022-08-18T06:51:18;100446.25;;;21.43;88.79
19112;BME280;9688;51.906;8.376;2022-08-18T06:54:27;100440.66;;;21.55;88.19
19112;BME280;9688;51.906;8.376;2022-08-18T06:57:35;100455.47;;;21.71;87.76
19112;BME280;9688;51.906;8.376;2022-08-18T07:00:42;100459.56;;;21.75;87.32
19112;BME280;9688;51.906;8.376;2022-08-18T07:03:51;100460.56;;;21.74;86.91
19112;BME280;9688;51.906;8.376;2022-08-18T07:06:58;100456.59;;;21.78;86.79
19112;BME280;9688;51.906;8.376;2022-08-18T07:10:31;100463.56;;;21.80;86.64
19112;BME280;9688;51.906;8.376;2022-08-18T07:13:38;100461.59;;;21.82;86.41
19112;BME280;9688;51.906;8.376;2022-08-18T07:16:43;100461.19;;;21.87;86.29
19112;BME280;9688;51.906;8.376;2022-08-18T07:19:59;100468.56;;;21.95;85.95
19112;BME280;9688;51.906;8.376;2022-08-18T07:23:32;100475.41;;;21.99;85.88
19112;BME280;9688;51.906;8.376;2022-08-18T07:27:00;100468.72;;;22.03;85.52
19112;BME280;9688;51.906;8.376;2022-08-18T07:30:10;100460.06;;;22.20;85.07
19112;BME280;9688;51.906;8.376;2022-08-18T07:33:22;100465.72;;;22.27;84.93
19112;BME280;9688;51.906;8.376;2022-08-18T07:36:32;100473.56;;;22.40;84.56
19112;BME280;9688;51.906;8.376;2022-08-18T07:39:43;100473.56;;;22.40;84.52
19112;BME280;9688;51.906;8.376;2022-08-18T07:42:57;100474.00;;;22.45;84.20
19112;BME280;9688;51.906;8.376;2022-08-18T07:46:08;100475.13;;;22.52;84.16
19112;BME280;9688;51.906;8.376;2022-08-18T07:49:19;100467.47;;;22.57;84.04
19112;BME280;9688;51.906;8.376;2022-08-18T07:52:31;100475.56;;;22.47;84.19
19112;BME280;9688;51.906;8.376;2022-08-18T07:55:49;100480.94;;;22.38;84.39
19112;BME280;9688;51.906;8.376;2022-08-18T07:59:07;100472.56;;;22.31;84.37
19112;BME280;9688;51.906;8.376;2022-08-18T08:02:26;100472.97;;;22.26;84.42
19112;BME280;9688;51.906;8.376;2022-08-18T08:05:41;100476.34;;;22.19;85.05
19112;BME280;9688;51.906;8.376;2022-08-18T08:08:55;100475.00;;;22.13;85.18
19112;BME280;9688;51.906;8.376;2022-08-18T08:12:23;100478.09;;;22.09;85.59
19112;BME280;9688;51.906;8.376;2022-08-18T08:15:42;100473.59;;;22.09;85.60
19112;BME280;9688;51.906;8.376;2022-08-18T08:18:57;100475.59;;;22.17;85.27
19112;BME280;9688;51.906;8.376;2022-08-18T08:22:11;100468.03;;;22.32;84.33
19112;BME280;9688;51.906;8.376;2022-08-18T08:25:25;100462.78;;;22.49;84.21
19112;BME280;9688;51.906;8.376;2022-08-18T08:28:41;100458.53;;;22.66;83.89
19112;BME280;9688;51.906;8.376;2022-08-18T08:31:55;100460.13;;;22.79;83.32
19112;BME280;9688;51.906;8.376;2022-08-18T08:35:05;100466.78;;;22.94;82.78
19112;BME280;9688;51.906;8.376;2022-08-18T08:38:15;100475.75;;;23.04;82.32
19112;BME280;9688;51.906;8.376;2022-08-18T08:41:23;100476.03;;;23.01;82.71
19112;BME280;9688;51.906;8.376;2022-08-18T08:44:35;100478.19;;;22.98;82.72
19112;BME280;9688;51.906;8.376;2022-08-18T08:47:54;100486.38;;;22.86;82.95
19112;BME280;9688;51.906;8.376;2022-08-18T08:51:02;100482.97;;;22.84;83.35
19112;BME280;9688;51.906;8.376;2022-08-18T08:54:14;100484.38;;;22.88;83.13
19112;BME280;9688;51.906;8.376;2022-08-18T08:57:26;100488.09;;;23.07;82.62
19112;BME280;9688;51.906;8.376;2022-08-18T09:03:45;100498.00;;;23.45;81.34
19112;BME280;9688;51.906;8.376;2022-08-18T09:07:02;100484.31;;;23.56;81.07
19112;BME280;9688;51.906;8.376;2022-08-18T09:10:30;100491.41;;;23.57;80.82
19112;BME280;9688;51.906;8.376;2022-08-18T09:13:58;100488.59;;;23.59;81.03
19112;BME280;9688;51.906;8.376;2022-08-18T09:17:38;100493.81;;;23.60;80.81
19112;BME280;9688;51.906;8.376;2022-08-18T09:20:59;100498.78;;;23.65;80.16
19112;BME280;9688;51.906;8.376;2022-08-18T09:24:16;100503.75;;;23.60;80.38
19112;BME280;9688;51.906;8.376;2022-08-18T09:27:35;100501.78;;;23.62;80.49
19112;BME280;9688;51.906;8.376;2022-08-18T09:30:46;100501.91;;;23.70;79.77
19112;BME280;9688;51.906;8.376;2022-08-18T09:37:42;100502.56;;;23.92;78.85
19112;BME280;9688;51.906;8.376;2022-08-18T09:40:50;100493.75;;;23.90;79.06
19112;BME280;9688;51.906;8.376;2022-08-18T09:48:00;100502.31;;;24.13;78.19
19112;BME280;9688;51.906;8.376;2022-08-18T09:51:33;100497.91;;;24.39;77.57
19112;BME280;9688;51.906;8.376;2022-08-18T09:54:50;100499.22;;;24.81;76.14
19112;BME280;9688;51.906;8.376;2022-08-18T09:58:14;100502.84;;;25.07;75.00
19112;BME280;9688;51.906;8.376;2022-08-18T10:01:31;100496.63;;;25.25;74.26
19112;BME280;9688;51.906;8.376;2022-08-18T10:04:37;100489.59;;;25.40;73.89
19112;BME280;9688;51.906;8.376;2022-08-18T10:07:53;100499.72;;;25.38;73.69
19112;BME280;9688;51.906;8.376;2022-08-18T10:11:16;100505.25;;;25.28;74.00
19112;BME280;9688;51.906;8.376;2022-08-18T10:14:31;100504.88;;;25.05;74.31
19112;BME280;9688;51.906;8.376;2022-08-18T10:17:49;100501.00;;;24.90;74.72
19112;BME280;9688;51.906;8.376;2022-08-18T10:21:07;100512.84;;;24.89;74.49
19112;BME280;9688;51.906;8.376;2022-08-18T10:24:16;100504.41;;;24.92;74.12
19112;BME280;9688;51.906;8.376;2022-08-18T10:27:46;100509.75;;;24.84;74.24
19112;BME280;9688;51.906;8.376;2022-08-18T10:31:07;100499.38;;;24.79;74.22
19112;BME280;9688;51.906;8.376;2022-08-18T10:34:36;100500.09;;;24.81;74.27
19112;BME280;9688;51.906;8.376;2022-08-18T10:37:43;100504.03;;;24.87;74.17
19112;BME280;9688;51.906;8.376;2022-08-18T10:40:57;100504.50;;;25.00;73.41
19112;BME280;9688;51.906;8.376;2022-08-18T10:44:05;100501.53;;;25.11;72.87
19112;BME280;9688;51.906;8.376;2022-08-18T10:47:22;100501.84;;;25.08;72.95
19112;BME280;9688;51.906;8.376;2022-08-18T10:50:29;100508.94;;;25.09;73.22
19112;BME280;9688;51.906;8.376;2022-08-18T10:53:42;100512.69;;;25.08;72.79
19112;BME280;9688;51.906;8.376;2022-08-18T10:56:53;100507.25;;;25.08;72.95
19112;BME280;9688;51.906;8.376;2022-08-18T11:00:06;100507.34;;;24.99;73.19
19112;BME280;9688;51.906;8.376;2022-08-18T11:03:22;100512.97;;;24.87;73.27
19112;BME280;9688;51.906;8.376;2022-08-18T11:06:39;100505.03;;;24.86;73.16
19112;BME280;9688;51.906;8.376;2022-08-18T11:09:49;100504.72;;;24.89;72.94
19112;BME280;9688;51.906;8.376;2022-08-18T11:13:06;100499.91;;;25.01;72.61
19112;BME280;9688;51.906;8.376;2022-08-18T11:16:23;100496.75;;;25.05;72.69
19112;BME280;9688;51.906;8.376;2022-08-18T11:19:35;100505.66;;;25.15;72.27
19112;BME280;9688;51.906;8.376;2022-08-18T11:22:49;100512.28;;;25.21;71.85
19112;BME280;9688;51.906;8.376;2022-08-18T11:25:54;100510.19;;;25.33;71.61
19112;BME280;9688;51.906;8.376;2022-08-18T11:28:59;100497.34;;;25.35;71.42
19112;BME280;9688;51.906;8.376;2022-08-18T11:32:08;100489.28;;;25.43;70.64
19112;BME280;9688;51.906;8.376;2022-08-18T11:35:17;100491.06;;;25.60;70.12
19112;BME280;9688;51.906;8.376;2022-08-18T11:38:23;100475.75;;;25.69;69.70
19112;BME280;9688;51.906;8.376;2022-08-18T11:41:29;100471.06;;;25.79;69.31
19112;BME280;9688;51.906;8.376;2022-08-18T11:44:34;100471.84;;;25.98;68.45
19112;BME280;9688;51.906;8.376;2022-08-18T11:48:00;100469.84;;;26.00;68.48
19112;BME280;9688;51.906;8.376;2022-08-18T11:51:10;100470.22;;;26.05;68.17
19112;BME280;9688;51.906;8.376;2022-08-18T11:54:34;100475.91;;;26.36;66.69
19112;BME280;9688;51.906;8.376;2022-08-18T11:57:41;100464.13;;;26.70;65.61
19112;BME280;9688;51.906;8.376;2022-08-18T12:00:56;100459.22;;;26.98;64.77
19112;BME280;9688;51.906;8.376;2022-08-18T12:04:12;100461.78;;;27.08;64.36
19112;BME280;9688;51.906;8.376;2022-08-18T12:07:26;100458.88;;;27.09;63.73
19112;BME280;9688;51.906;8.376;2022-08-18T12:10:31;100460.59;;;27.02;64.15
19112;BME280;9688;51.906;8.376;2022-08-18T12:13:36;100460.59;;;27.10;63.53
19112;BME280;9688;51.906;8.376;2022-08-18T12:16:41;100458.03;;;27.09;63.34
19112;BME280;9688;51.906;8.376;2022-08-18T12:19:48;100444.13;;;27.12;62.90
19112;BME280;9688;51.906;8.376;2022-08-18T12:22:55;100453.63;;;27.32;62.29
19112;BME280;9688;51.906;8.376;2022-08-18T12:26:00;100448.88;;;27.18;62.58
19112;BME280;9688;51.906;8.376;2022-08-18T12:29:06;100448.22;;;27.24;62.80
19112;BME280;9688;51.906;8.376;2022-08-18T12:32:12;100436.81;;;27.37;62.34
19112;BME280;9688;51.906;8.376;2022-08-18T12:35:21;100446.16;;;27.34;61.99
19112;BME280;9688;51.906;8.376;2022-08-18T12:38:26;100431.88;;;27.41;61.36
19112;BME280;9688;51.906;8.376;2022-08-18T12:41:31;100419.81;;;27.51;60.70
19112;BME280;9688;51.906;8.376;2022-08-18T12:44:36;100417.31;;;27.42;60.37
19112;BME280;9688;51.906;8.376;2022-08-18T12:47:41;100420.19;;;27.40;60.63
19112;BME280;9688;51.906;8.376;2022-08-18T12:50:48;100416.31;;;27.26;60.83
19112;BME280;9688;51.906;8.376;2022-08-18T12:53:54;100406.81;;;27.14;60.77
19112;BME280;9688;51.906;8.376;2022-08-18T12:57:02;100413.94;;;27.31;60.69
19112;BME280;9688;51.906;8.376;2022-08-18T13:00:09;100425.13;;;27.36;60.10
19112;BME280;9688;51.906;8.376;2022-08-18T13:03:15;100423.09;;;27.39;59.67
19112;BME280;9688;51.906;8.376;2022-08-18T13:06:25;100421.34;;;27.54;59.30
19112;BME280;9688;51.906;8.376;2022-08-18T13:09:34;100420.13;;;27.65;58.22
19112;BME280;9688;51.906;8.376;2022-08-18T13:12:42;100434.69;;;27.72;58.36
19112;BME280;9688;51.906;8.376;2022-08-18T13:15:51;100447.31;;;27.48;58.58
19112;BME280;9688;51.906;8.376;2022-08-18T13:18:57;100439.41;;;27.22;59.63
19112;BME280;9688;51.906;8.376;2022-08-18T13:22:04;100434.31;;;27.19;59.77
19112;BME280;9688;51.906;8.376;2022-08-18T13:25:12;100432.59;;;27.26;60.23
19112;BME280;9688;51.906;8.376;2022-08-18T13:28:17;100433.41;;;27.35;60.21
19112;BME280;9688;51.906;8.376;2022-08-18T13:31:22;100423.44;;;27.35;59.72
19112;BME280;9688;51.906;8.376;2022-08-18T13:34:29;100419.66;;;27.45;59.45
19112;BME280;9688;51.906;8.376;2022-08-18T13:37:37;100415.22;;;27.52;59.35
19112;BME280;9688;51.906;8.376;2022-08-18T13:40:43;100417.91;;;27.60;58.91
19112;BME280;9688;51.906;8.376;2022-08-18T13:43:51;100420.31;;;27.63;58.80
19112;BME280;9688;51.906;8.376;2022-08-18T13:46:58;100426.59;;;27.64;59.18
19112;BME280;9688;51.906;8.376;2022-08-18T13:50:06;100422.66;;;27.66;58.43
19112;BME280;9688;51.906;8.376;2022-08-18T13:53:14;100408.91;;;27.68;58.81
19112;BME280;9688;51.906;8.376;2022-08-18T13:56:22;100401.91;;;27.73;58.40
19112;BME280;9688;51.906;8.376;2022-08-18T13:59:29;100399.19;;;27.82;58.98
19112;BME280;9688;51.906;8.376;2022-08-18T14:02:36;100408.50;;;27.79;58.78
19112;BME280;9688;51.906;8.376;2022-08-18T14:05:40;100400.63;;;27.61;58.99
19112;BME280;9688;51.906;8.376;2022-08-18T14:08:46;100394.19;;;27.46;59.82
19112;BME280;9688;51.906;8.376;2022-08-18T14:11:51;100402.94;;;27.25;60.18
19112;BME280;9688;51.906;8.376;2022-08-18T14:14:56;100397.00;;;27.05;61.01
19112;BME280;9688;51.906;8.376;2022-08-18T14:18:01;100382.22;;;27.07;61.26
19112;BME280;9688;51.906;8.376;2022-08-18T14:21:05;100380.19;;;27.09;61.00
19112;BME280;9688;51.906;8.376;2022-08-18T14:24:30;100378.00;;;27.05;60.40
19112;BME280;9688;51.906;8.376;2022-08-18T14:28:07;100373.91;;;27.01;60.32
19112;BME280;9688;51.906;8.376;2022-08-18T14:31:12;100374.13;;;26.91;60.38
19112;BME280;9688;51.906;8.376;2022-08-18T14:34:16;100353.59;;;26.88;60.09
19112;BME280;9688;51.906;8.376;2022-08-18T14:37:21;100351.53;;;26.82;60.33
19112;BME280;9688;51.906;8.376;2022-08-18T14:40:27;100345.75;;;27.02;60.00
19112;BME280;9688;51.906;8.376;2022-08-18T14:43:33;100354.41;;;27.22;59.47
19112;BME280;9688;51.906;8.376;2022-08-18T14:46:38;100358.28;;;27.35;59.29
19112;BME280;9688;51.906;8.376;2022-08-18T14:49:44;100361.81;;;27.44;58.81
19112;BME280;9688;51.906;8.376;2022-08-18T14:52:49;100356.69;;;27.49;58.70
19112;BME280;9688;51.906;8.376;2022-08-18T14:55:56;100353.34;;;27.31;58.50
19112;BME280;9688;51.906;8.376;2022-08-18T14:59:01;100362.69;;;27.12;59.01
19112;BME280;9688;51.906;8.376;2022-08-18T15:02:09;100365.94;;;26.99;59.20
19112;BME280;9688;51.906;8.376;2022-08-18T15:05:15;100362.06;;;26.85;59.86
19112;BME280;9688;51.906;8.376;2022-08-18T15:08:22;100365.13;;;26.74;59.94
19112;BME280;9688;51.906;8.376;2022-08-18T15:11:31;100354.59;;;26.71;60.09
19112;BME280;9688;51.906;8.376;2022-08-18T15:14:38;100358.34;;;26.78;59.78
19112;BME280;9688;51.906;8.376;2022-08-18T15:17:43;100355.63;;;26.78;59.07
19112;BME280;9688;51.906;8.376;2022-08-18T15:20:48;100365.13;;;26.82;58.18
19112;BME280;9688;51.906;8.376;2022-08-18T15:24:12;100377.31;;;26.95;57.50
19112;BME280;9688;51.906;8.376;2022-08-18T15:27:37;100372.91;;;26.93;57.43
19112;BME280;9688;51.906;8.376;2022-08-18T15:30:43;100362.22;;;27.08;56.89
19112;BME280;9688;51.906;8.376;2022-08-18T15:33:49;100365.44;;;27.20;56.54
19112;BME280;9688;51.906;8.376;2022-08-18T15:36:53;100365.06;;;27.15;56.61
19112;BME280;9688;51.906;8.376;2022-08-18T15:40:07;100368.81;;;27.30;56.46
19112;BME280;9688;51.906;8.376;2022-08-18T15:43:16;100363.00;;;27.42;55.51
19112;BME280;9688;51.906;8.376;2022-08-18T15:46:22;100362.63;;;27.53;55.35
19112;BME280;9688;51.906;8.376;2022-08-18T15:49:26;100364.47;;;27.61;54.59
19112;BME280;9688;51.906;8.376;2022-08-18T15:52:31;100366.97;;;27.62;54.99
19112;BME280;9688;51.906;8.376;2022-08-18T15:55:38;100353.25;;;27.64;54.54
19112;BME280;9688;51.906;8.376;2022-08-18T15:58:45;100346.09;;;27.63;54.48
19112;BME280;9688;51.906;8.376;2022-08-18T16:01:49;100355.38;;;27.76;54.52
19112;BME280;9688;51.906;8.376;2022-08-18T16:04:54;100351.44;;;27.87;54.38
19112;BME280;9688;51.906;8.376;2022-08-18T16:07:59;100351.41;;;27.95;53.54
19112;BME280;9688;51.906;8.376;2022-08-18T16:11:06;100351.22;;;27.97;53.47
19112;BME280;9688;51.906;8.376;2022-08-18T16:14:12;100339.69;;;27.95;53.19
19112;BME280;9688;51.906;8.376;2022-08-18T16:17:17;100346.38;;;27.84;53.33
19112;BME280;9688;51.906;8.376;2022-08-18T16:20:25;100356.03;;;27.87;53.71
19112;BME280;9688;51.906;8.376;2022-08-18T16:23:31;100352.28;;;27.88;53.41
19112;BME280;9688;51.906;8.376;2022-08-18T16:26:36;100346.22;;;27.86;53.71
19112;BME280;9688;51.906;8.376;2022-08-18T16:29:44;100351.44;;;27.79;53.54
19112;BME280;9688;51.906;8.376;2022-08-18T16:32:50;100360.50;;;27.71;53.85
19112;BME280;9688;51.906;8.376;2022-08-18T16:36:01;100352.69;;;27.68;53.60
19112;BME280;9688;51.906;8.376;2022-08-18T16:39:06;100356.66;;;27.57;54.04
19112;BME280;9688;51.906;8.376;2022-08-18T16:42:11;100351.31;;;27.41;54.46
19112;BME280;9688;51.906;8.376;2022-08-18T16:45:17;100339.28;;;27.27;55.16
19112;BME280;9688;51.906;8.376;2022-08-18T16:48:22;100345.06;;;27.24;55.40
19112;BME280;9688;51.906;8.376;2022-08-18T16:51:27;100343.34;;;27.31;55.45
19112;BME280;9688;51.906;8.376;2022-08-18T16:54:32;100351.84;;;27.28;55.38